createdAt,value
2023-08-13T00:01:43.867Z,15.63
2023-08-13T00:04:34.840Z,15.60
2023-08-13T00:07:28.504Z,15.58
2023-08-13T00:10:24.390Z,15.55
2023-08-13T00:13:15.057Z,15.52
2023-08-13T00:16:05.936Z,15.48
2023-08-13T00:18:58.832Z,15.46
2023-08-13T00:22:06.037Z,15.44
2023-08-13T00:24:58.165Z,15.40
2023-08-13T00:27:49.062Z,15.37
2023-08-13T00:30:39.930Z,15.35
2023-08-13T00:33:33.841Z,15.34
2023-08-13T00:36:27.366Z,15.33
2023-08-13T00:39:18.310Z,15.33
2023-08-13T00:42:09.681Z,15.32
2023-08-13T00:45:02.661Z,15.31
2023-08-13T00:47:53.505Z,15.28
2023-08-13T00:50:45.747Z,15.25
2023-08-13T00:53:41.323Z,15.22
2023-08-13T00:56:34.185Z,15.17
2023-08-13T00:59:25.368Z,15.13
2023-08-13T01:02:16.652Z,15.11
2023-08-13T01:05:08.048Z,15.10
2023-08-13T01:08:05.041Z,15.09
2023-08-13T01:10:59.722Z,15.08
2023-08-13T01:13:55.462Z,15.07
2023-08-13T01:16:46.171Z,15.06
2023-08-13T01:19:37.168Z,15.06
2023-08-13T01:22:28.704Z,15.05
2023-08-13T01:25:19.744Z,15.04
2023-08-13T01:28:14.629Z,15.05
2023-08-13T01:31:11.021Z,15.08
2023-08-13T01:34:03.871Z,15.12
2023-08-13T01:36:55.232Z,15.15
2023-08-13T01:39:49.999Z,15.17
2023-08-13T01:42:42.820Z,15.16
2023-08-13T01:45:35.790Z,15.16
2023-08-13T01:48:31.703Z,15.16
2023-08-13T01:51:35.960Z,15.17
2023-08-13T01:54:34.284Z,15.18
2023-08-13T01:57:25.385Z,15.19
2023-08-13T02:00:19.171Z,15.18
2023-08-13T02:03:30.104Z,15.16
2023-08-13T02:06:20.694Z,15.13
2023-08-13T02:09:23.813Z,15.10
2023-08-13T02:12:14.721Z,15.06
2023-08-13T02:15:06.515Z,15.03
2023-08-13T02:17:59.715Z,14.99
2023-08-13T02:20:53.095Z,14.96
2023-08-13T02:23:43.812Z,14.93
2023-08-13T02:26:37.811Z,14.87
2023-08-13T02:29:31.536Z,14.83
2023-08-13T02:32:24.545Z,14.80
2023-08-13T02:35:17.514Z,14.78
2023-08-13T02:38:11.427Z,14.76
2023-08-13T02:41:04.553Z,14.79
2023-08-13T02:43:58.782Z,14.83
2023-08-13T02:47:02.201Z,14.88
2023-08-13T02:50:04.156Z,14.93
2023-08-13T02:52:54.841Z,14.97
2023-08-13T02:55:54.350Z,15.00
2023-08-13T02:58:45.001Z,15.02
2023-08-13T03:01:40.195Z,15.02
2023-08-13T03:04:33.421Z,15.03
2023-08-13T03:07:27.285Z,15.04
2023-08-13T03:10:17.867Z,15.04
2023-08-13T03:13:08.451Z,15.06
2023-08-13T03:15:59.482Z,15.08
2023-08-13T03:18:50.291Z,15.09
2023-08-13T03:21:42.841Z,15.08
2023-08-13T03:24:33.498Z,15.08
2023-08-13T03:27:27.315Z,15.06
2023-08-13T03:30:19.529Z,15.06
2023-08-13T03:33:10.886Z,15.05
2023-08-13T03:36:02.401Z,15.03
2023-08-13T03:38:53.441Z,15.02
2023-08-13T03:41:47.089Z,15.01
2023-08-13T03:44:37.873Z,14.99
2023-08-13T03:47:29.629Z,14.99
2023-08-13T03:50:24.186Z,14.98
2023-08-13T03:53:15.005Z,14.97
2023-08-13T03:56:09.746Z,14.96
2023-08-13T03:59:07.899Z,14.94
2023-08-13T04:02:00.281Z,14.92
2023-08-13T04:04:51.593Z,14.90
2023-08-13T04:07:42.813Z,14.88
2023-08-13T04:10:33.809Z,14.88
2023-08-13T04:13:27.002Z,14.87
2023-08-13T04:16:17.902Z,14.88
2023-08-13T04:19:09.759Z,14.89
2023-08-13T04:22:07.930Z,14.89
2023-08-13T04:24:58.655Z,14.89
2023-08-13T04:27:49.414Z,14.88
2023-08-13T04:30:42.447Z,14.86
2023-08-13T04:33:33.063Z,14.86
2023-08-13T04:36:26.713Z,14.85
2023-08-13T04:39:18.067Z,14.85
2023-08-13T04:42:09.780Z,14.85
2023-08-13T04:45:05.680Z,14.87
2023-08-13T04:47:59.390Z,14.87
2023-08-13T04:50:50.316Z,14.88
2023-08-13T04:53:42.444Z,14.88
2023-08-13T04:56:42.450Z,14.87
2023-08-13T04:59:35.894Z,14.84
2023-08-13T05:02:37.911Z,14.82
2023-08-13T05:05:30.314Z,14.83
2023-08-13T05:08:23.768Z,14.82
2023-08-13T05:11:14.526Z,14.83
2023-08-13T05:14:08.005Z,14.86
2023-08-13T05:16:58.901Z,14.87
2023-08-13T05:19:53.807Z,14.90
2023-08-13T05:22:44.612Z,14.94
2023-08-13T05:25:39.780Z,14.97
2023-08-13T05:28:39.619Z,14.99
2023-08-13T05:31:33.037Z,15.00
2023-08-13T05:34:28.298Z,15.01
2023-08-13T05:37:26.728Z,15.00
2023-08-13T05:40:28.161Z,15.00
2023-08-13T05:43:18.836Z,15.00
2023-08-13T05:46:12.242Z,15.01
2023-08-13T05:49:08.958Z,15.03
2023-08-13T05:52:09.552Z,15.06
2023-08-13T05:55:05.361Z,15.10
2023-08-13T05:57:59.020Z,15.14
2023-08-13T06:00:49.799Z,15.17
2023-08-13T06:03:45.969Z,15.21
2023-08-13T06:06:56.829Z,15.22
2023-08-13T06:09:47.498Z,15.22
2023-08-13T06:12:38.260Z,15.21
2023-08-13T06:15:37.836Z,15.18
2023-08-13T06:18:31.818Z,15.16
2023-08-13T06:21:26.073Z,15.16
2023-08-13T06:24:16.987Z,15.16
2023-08-13T06:27:07.791Z,15.18
2023-08-13T06:30:10.725Z,15.21
2023-08-13T06:33:02.315Z,15.25
2023-08-13T06:35:53.398Z,15.30
2023-08-13T06:38:52.893Z,15.36
2023-08-13T06:41:43.528Z,15.42
2023-08-13T06:44:36.493Z,15.50
2023-08-13T06:47:27.532Z,15.61
2023-08-13T06:50:23.268Z,15.78
2023-08-13T06:53:13.844Z,15.93
2023-08-13T06:56:05.779Z,16.13
2023-08-13T06:58:56.480Z,16.30
2023-08-13T07:01:49.709Z,16.43
2023-08-13T07:04:40.609Z,16.48
2023-08-13T07:07:31.561Z,16.49
2023-08-13T07:10:24.985Z,16.40
2023-08-13T07:13:18.534Z,16.30
2023-08-13T07:16:14.804Z,16.27
2023-08-13T07:19:08.653Z,16.28
2023-08-13T07:21:59.511Z,16.33
2023-08-13T07:24:50.378Z,16.39
2023-08-13T07:27:41.581Z,16.46
2023-08-13T07:30:32.475Z,16.63
2023-08-13T07:33:25.877Z,16.90
2023-08-13T07:36:17.011Z,17.28
2023-08-13T07:39:11.666Z,17.57
2023-08-13T07:42:02.239Z,17.77
2023-08-13T07:44:53.002Z,17.94
2023-08-13T07:47:43.878Z,18.24
2023-08-13T07:50:35.708Z,18.65
2023-08-13T07:53:26.164Z,18.94
2023-08-13T07:56:16.839Z,19.04
2023-08-13T07:59:07.540Z,19.46
2023-08-13T08:01:58.087Z,20.08
2023-08-13T08:04:48.985Z,20.86
2023-08-13T08:07:39.702Z,21.59
2023-08-13T08:10:30.382Z,21.57
2023-08-13T08:13:20.860Z,21.89
2023-08-13T08:16:11.506Z,21.77
2023-08-13T08:19:02.449Z,22.03
2023-08-13T08:21:53.048Z,22.95
2023-08-13T08:24:43.832Z,23.29
2023-08-13T08:27:34.402Z,23.09
2023-08-13T08:30:26.025Z,23.37
2023-08-13T08:33:16.358Z,24.08
2023-08-13T08:36:07.077Z,24.42
2023-08-13T08:38:59.604Z,25.11
2023-08-13T08:41:50.315Z,25.15
2023-08-13T08:44:44.252Z,24.95
2023-08-13T08:47:35.660Z,25.90
2023-08-13T08:50:26.254Z,26.42
2023-08-13T08:53:17.202Z,27.03
2023-08-13T08:56:08.067Z,27.70
2023-08-13T08:58:58.526Z,28.44
2023-08-13T09:01:48.929Z,29.08
2023-08-13T09:04:39.538Z,28.94
2023-08-13T09:07:33.552Z,28.99
2023-08-13T09:10:24.066Z,29.22
2023-08-13T09:13:14.595Z,29.58
2023-08-13T09:16:05.336Z,30.02
2023-08-13T09:19:04.533Z,30.58
2023-08-13T09:22:02.876Z,30.90
2023-08-13T09:24:55.246Z,31.17
2023-08-13T09:27:47.382Z,31.64
2023-08-13T09:30:37.646Z,32.19
2023-08-13T09:33:28.820Z,32.56
2023-08-13T09:36:19.346Z,32.40
2023-08-13T09:39:09.963Z,32.36
2023-08-13T09:42:02.497Z,31.18
2023-08-13T09:44:57.472Z,31.40
2023-08-13T09:47:50.390Z,32.32
2023-08-13T09:50:41.853Z,32.93
2023-08-13T09:53:33.940Z,32.31
2023-08-13T09:56:25.205Z,32.26
2023-08-13T09:59:18.232Z,31.57
2023-08-13T10:02:09.547Z,31.12
2023-08-13T10:05:03.357Z,30.65
2023-08-13T10:07:54.176Z,31.39
2023-08-13T10:10:44.727Z,32.55
2023-08-13T10:13:35.326Z,31.98
2023-08-13T10:16:29.520Z,31.96
2023-08-13T10:19:29.820Z,33.04
2023-08-13T10:22:36.736Z,33.52
2023-08-13T10:25:31.192Z,34.18
2023-08-13T10:28:33.562Z,35.20
2023-08-13T10:31:31.896Z,35.95
2023-08-13T10:34:43.542Z,36.40
2023-08-13T10:37:34.257Z,36.63
2023-08-13T10:40:25.271Z,35.43
2023-08-13T10:43:23.867Z,33.05
2023-08-13T10:46:22.044Z,31.47
2023-08-13T10:49:12.674Z,30.61
2023-08-13T10:52:03.942Z,29.18
2023-08-13T10:54:59.317Z,27.74
2023-08-13T10:57:54.369Z,26.42
2023-08-13T11:00:45.947Z,26.08
2023-08-13T11:03:36.810Z,27.38
2023-08-13T11:06:29.451Z,28.43
2023-08-13T11:09:20.435Z,30.29
2023-08-13T11:12:12.105Z,31.88
2023-08-13T11:15:02.841Z,33.26
2023-08-13T11:17:53.649Z,34.45
2023-08-13T11:20:46.008Z,35.27
2023-08-13T11:23:36.831Z,35.36
2023-08-13T11:26:31.317Z,34.08
2023-08-13T11:29:22.816Z,32.20
2023-08-13T11:32:16.989Z,30.52
2023-08-13T11:35:10.972Z,29.42
2023-08-13T11:38:02.178Z,30.31
2023-08-13T11:40:52.924Z,31.96
2023-08-13T11:43:44.169Z,33.19
2023-08-13T11:46:48.649Z,32.35
2023-08-13T11:49:45.646Z,31.53
2023-08-13T11:52:36.408Z,31.61
2023-08-13T11:55:42.757Z,31.37
2023-08-13T11:58:33.401Z,32.23
2023-08-13T12:01:26.374Z,32.89
2023-08-13T12:04:17.133Z,32.62
2023-08-13T12:07:11.508Z,32.39
2023-08-13T12:10:01.665Z,33.45
2023-08-13T12:12:52.889Z,33.88
2023-08-13T12:15:43.717Z,33.90
2023-08-13T12:18:34.322Z,33.12
2023-08-13T12:21:24.842Z,32.66
2023-08-13T12:24:15.384Z,34.00
2023-08-13T12:27:06.162Z,35.69
2023-08-13T12:29:56.766Z,36.65
2023-08-13T12:32:47.498Z,36.37
2023-08-13T12:35:38.207Z,36.27
2023-08-13T12:38:28.889Z,35.77
2023-08-13T12:41:30.435Z,34.12
2023-08-13T12:44:28.981Z,32.60
2023-08-13T12:47:19.721Z,31.70
2023-08-13T12:50:10.871Z,33.12
2023-08-13T12:53:04.656Z,34.65
2023-08-13T12:55:55.508Z,34.89
2023-08-13T12:58:47.775Z,35.65
2023-08-13T13:01:38.432Z,36.34
2023-08-13T13:04:30.850Z,35.84
2023-08-13T13:07:21.872Z,36.15
2023-08-13T13:10:12.873Z,37.07
2023-08-13T13:13:03.680Z,36.01
2023-08-13T13:15:54.464Z,33.80
2023-08-13T13:18:45.211Z,31.94
2023-08-13T13:21:35.766Z,30.63
2023-08-13T13:24:26.477Z,30.14
2023-08-13T13:27:16.924Z,31.81
2023-08-13T13:30:08.792Z,33.51
2023-08-13T13:32:59.556Z,34.35
2023-08-13T13:35:50.510Z,34.63
2023-08-13T13:38:41.219Z,34.75
2023-08-13T13:41:33.180Z,34.09
2023-08-13T13:44:24.362Z,33.03
2023-08-13T13:47:14.547Z,32.50
2023-08-13T13:50:05.419Z,32.03
2023-08-13T13:53:03.392Z,31.85
2023-08-13T13:56:02.009Z,32.75
2023-08-13T13:58:52.858Z,33.31
2023-08-13T14:01:44.990Z,33.27
2023-08-13T14:04:35.580Z,32.75
2023-08-13T14:07:26.095Z,32.57
2023-08-13T14:10:16.634Z,32.40
2023-08-13T14:13:08.075Z,32.46
2023-08-13T14:16:02.703Z,32.40
2023-08-13T14:18:56.274Z,32.25
2023-08-13T14:21:46.883Z,31.54
2023-08-13T14:24:37.521Z,31.14
2023-08-13T14:27:28.032Z,31.12
2023-08-13T14:30:18.754Z,31.03
2023-08-13T14:33:09.374Z,30.35
2023-08-13T14:36:00.571Z,29.20
2023-08-13T14:38:53.174Z,28.47
2023-08-13T14:41:43.474Z,28.03
2023-08-13T14:44:34.593Z,27.92
2023-08-13T14:47:25.878Z,27.90
2023-08-13T14:50:16.550Z,27.53
2023-08-13T14:53:07.139Z,26.98
2023-08-13T14:55:57.667Z,26.67
2023-08-13T14:58:48.156Z,26.64
2023-08-13T15:01:38.910Z,26.61
2023-08-13T15:04:29.403Z,26.42
2023-08-13T15:07:22.216Z,26.19
2023-08-13T15:10:12.797Z,26.02
2023-08-13T15:13:05.316Z,25.92
2023-08-13T15:15:56.021Z,25.74
2023-08-13T15:18:46.588Z,25.38
2023-08-13T15:21:37.011Z,25.16
2023-08-13T15:24:27.430Z,25.20
2023-08-13T15:27:17.818Z,25.25
2023-08-13T15:30:09.452Z,25.16
2023-08-13T15:32:59.646Z,25.18
2023-08-13T15:35:54.290Z,25.16
2023-08-13T15:38:44.815Z,25.13
2023-08-13T15:41:35.359Z,24.91
2023-08-13T15:44:25.941Z,24.80
2023-08-13T15:47:16.482Z,24.94
2023-08-13T15:50:07.518Z,25.00
2023-08-13T15:52:58.023Z,24.88
2023-08-13T15:55:48.822Z,24.85
2023-08-13T15:58:39.421Z,24.93
2023-08-13T16:01:30.482Z,24.93
2023-08-13T16:04:20.922Z,24.72
2023-08-13T16:07:11.426Z,24.47
2023-08-13T16:10:03.353Z,24.35
2023-08-13T16:12:53.727Z,24.24
2023-08-13T16:15:44.226Z,24.07
2023-08-13T16:18:34.817Z,23.80
2023-08-13T16:21:25.370Z,23.65
2023-08-13T16:24:15.835Z,23.60
2023-08-13T16:27:06.517Z,23.54
2023-08-13T16:29:57.688Z,23.58
2023-08-13T16:32:47.986Z,23.61
2023-08-13T16:35:38.543Z,23.63
2023-08-13T16:38:29.070Z,23.61
2023-08-13T16:41:20.415Z,23.47
2023-08-13T16:44:10.949Z,23.44
2023-08-13T16:47:01.646Z,23.51
2023-08-13T16:49:58.492Z,23.53
2023-08-13T16:52:55.760Z,23.33
2023-08-13T16:55:46.239Z,23.12
2023-08-13T16:58:36.727Z,22.92
2023-08-13T17:01:27.285Z,22.65
2023-08-13T17:04:17.590Z,22.44
2023-08-13T17:07:08.649Z,22.34
2023-08-13T17:09:59.229Z,22.27
2023-08-13T17:12:49.785Z,22.13
2023-08-13T17:15:40.145Z,21.96
2023-08-13T17:18:30.678Z,21.84
2023-08-13T17:21:21.379Z,21.74
2023-08-13T17:24:11.842Z,21.67
2023-08-13T17:27:04.540Z,21.52
2023-08-13T17:29:55.395Z,21.39
2023-08-13T17:32:46.035Z,21.30
2023-08-13T17:35:36.598Z,21.20
2023-08-13T17:38:27.113Z,21.16
2023-08-13T17:41:17.677Z,21.10
2023-08-13T17:44:08.504Z,20.98
2023-08-13T17:46:59.033Z,20.86
2023-08-13T17:49:49.642Z,20.79
2023-08-13T17:52:40.377Z,20.73
2023-08-13T17:55:31.273Z,20.71
2023-08-13T17:58:21.870Z,20.71
2023-08-13T18:01:12.384Z,20.73
2023-08-13T18:04:03.209Z,20.69
2023-08-13T18:06:53.770Z,20.66
2023-08-13T18:09:44.328Z,20.64
2023-08-13T18:12:35.171Z,20.65
2023-08-13T18:15:25.941Z,20.67
2023-08-13T18:18:16.716Z,20.71
2023-08-13T18:21:07.301Z,20.70
2023-08-13T18:23:57.870Z,20.63
2023-08-13T18:26:49.521Z,20.53
2023-08-13T18:29:40.122Z,20.46
2023-08-13T18:32:31.704Z,20.34
2023-08-13T18:35:22.478Z,20.22
2023-08-13T18:38:15.149Z,20.12
2023-08-13T18:41:09.113Z,19.98
2023-08-13T18:43:59.708Z,19.87
2023-08-13T18:46:50.598Z,19.81
2023-08-13T18:49:41.365Z,19.75
2023-08-13T18:52:31.987Z,19.68
2023-08-13T18:55:22.608Z,19.65
2023-08-13T18:58:13.173Z,19.61
2023-08-13T19:01:04.530Z,19.57
2023-08-13T19:03:54.690Z,19.51
2023-08-13T19:06:45.584Z,19.45
2023-08-13T19:09:36.197Z,19.41
2023-08-13T19:12:26.728Z,19.36
2023-08-13T19:15:17.343Z,19.31
2023-08-13T19:18:08.136Z,19.22
2023-08-13T19:20:59.037Z,19.18
2023-08-13T19:23:49.617Z,19.14
2023-08-13T19:26:40.301Z,19.12
2023-08-13T19:29:30.815Z,19.09
2023-08-13T19:32:21.238Z,19.02
2023-08-13T19:35:12.098Z,18.95
2023-08-13T19:38:02.808Z,18.88
2023-08-13T19:40:56.459Z,18.79
2023-08-13T19:43:46.982Z,18.72
2023-08-13T19:46:37.521Z,18.66
2023-08-13T19:49:28.145Z,18.60
2023-08-13T19:52:18.958Z,18.56
2023-08-13T19:55:12.288Z,18.53
2023-08-13T19:58:02.885Z,18.45
2023-08-13T20:00:53.467Z,18.39
2023-08-13T20:03:44.143Z,18.34
2023-08-13T20:06:34.973Z,18.28
2023-08-13T20:09:25.557Z,18.21
2023-08-13T20:12:16.592Z,18.16
2023-08-13T20:15:08.038Z,18.14
2023-08-13T20:17:58.576Z,18.13
2023-08-13T20:20:55.574Z,18.14
2023-08-13T20:23:46.309Z,18.12
2023-08-13T20:26:38.322Z,18.09
2023-08-13T20:29:28.965Z,18.07
2023-08-13T20:32:19.839Z,18.02
2023-08-13T20:35:11.664Z,17.94
2023-08-13T20:38:02.309Z,17.91
2023-08-13T20:40:58.161Z,17.88
2023-08-13T20:43:48.724Z,17.85
2023-08-13T20:46:39.431Z,17.81
2023-08-13T20:49:29.924Z,17.80
2023-08-13T20:52:20.542Z,17.76
2023-08-13T20:55:11.218Z,17.72
2023-08-13T20:58:01.804Z,17.70
2023-08-13T21:00:53.131Z,17.66
2023-08-13T21:03:43.895Z,17.62
2023-08-13T21:06:34.557Z,17.61
2023-08-13T21:09:27.294Z,17.62
2023-08-13T21:12:19.815Z,17.64
2023-08-13T21:15:11.176Z,17.65
2023-08-13T21:18:02.004Z,17.66
2023-08-13T21:20:52.708Z,17.62
2023-08-13T21:23:43.285Z,17.61
2023-08-13T21:26:35.770Z,17.60
2023-08-13T21:29:26.403Z,17.60
2023-08-13T21:32:17.286Z,17.60
2023-08-13T21:35:12.023Z,17.57
2023-08-13T21:38:03.393Z,17.53
2023-08-13T21:40:54.117Z,17.50
2023-08-13T21:43:45.091Z,17.48
2023-08-13T21:46:35.700Z,17.45
2023-08-13T21:49:27.088Z,17.43
2023-08-13T21:52:18.799Z,17.42
2023-08-13T21:55:10.520Z,17.40
2023-08-13T21:58:01.226Z,17.38
2023-08-13T22:00:51.896Z,17.37
2023-08-13T22:03:42.717Z,17.34
2023-08-13T22:06:33.414Z,17.31
2023-08-13T22:09:24.081Z,17.28
2023-08-13T22:12:15.037Z,17.27
2023-08-13T22:15:06.764Z,17.24
2023-08-13T22:17:57.514Z,17.22
2023-08-13T22:20:48.677Z,17.23
2023-08-13T22:23:39.352Z,17.24
2023-08-13T22:26:30.031Z,17.23
2023-08-13T22:29:20.747Z,17.22
2023-08-13T22:32:11.630Z,17.20
2023-08-13T22:35:02.493Z,17.19
2023-08-13T22:37:53.033Z,17.17
2023-08-13T22:40:43.644Z,17.13
2023-08-13T22:43:34.300Z,17.13
2023-08-13T22:46:25.043Z,17.13
2023-08-13T22:49:30.679Z,17.10
2023-08-13T22:52:21.294Z,17.08
2023-08-13T22:55:12.204Z,17.06
2023-08-13T22:58:02.955Z,17.07
2023-08-13T23:00:53.488Z,17.06
2023-08-13T23:03:44.219Z,17.05
2023-08-13T23:06:35.174Z,17.04
2023-08-13T23:09:25.922Z,17.04
2023-08-13T23:12:16.758Z,17.02
2023-08-13T23:15:08.342Z,17.01
2023-08-13T23:17:59.011Z,16.96
2023-08-13T23:20:49.779Z,16.95
2023-08-13T23:23:40.371Z,16.94
2023-08-13T23:26:31.131Z,16.95
2023-08-13T23:29:22.351Z,16.94
2023-08-13T23:32:13.555Z,16.94
2023-08-13T23:35:04.237Z,16.93
2023-08-13T23:37:54.936Z,16.91
2023-08-13T23:40:46.378Z,16.90
2023-08-13T23:43:36.900Z,16.89
2023-08-13T23:46:27.753Z,16.87
2023-08-13T23:49:18.666Z,16.86
2023-08-13T23:52:09.627Z,16.85
2023-08-13T23:55:00.349Z,16.85
2023-08-13T23:57:50.964Z,16.86
